Time;durP1;ratioP1;P1;durP2;ratioP2;P2;SDS_P1;SDS_P2;PMS_P1;PMS_P2;Temp;Humidity;BMP_temperature;BMP_pressure;BME280_temperature;BME280_humidity;BME280_pressure;Samples;Min_cycle;Max_cycle;Signal;HPM_P1;HPM_P2
2022/10/07 00:00:24;;;;;;;11.60;2.03;;;12.90;99.90;;;;;;4985674;28;20023;-88
2022/10/07 00:02:49;;;;;;;7.75;1.73;;;12.80;99.90;;;;;;4986095;28;20180;-86
2022/10/07 00:05:15;;;;;;;12.15;2.88;;;12.80;99.90;;;;;;4985021;28;20115;-89
2022/10/07 00:07:41;;;;;;;11.25;1.63;;;12.80;99.90;;;;;;4985235;28;20170;-89
2022/10/07 00:10:07;;;;;;;11.77;2.05;;;12.80;99.90;;;;;;4981537;28;20042;-89
2022/10/07 00:12:32;;;;;;;10.30;2.10;;;12.80;99.90;;;;;;4985374;28;20331;-90
2022/10/07 00:14:58;;;;;;;10.13;1.70;;;12.70;99.90;;;;;;4981318;28;20061;-89
2022/10/07 00:17:24;;;;;;;10.77;2.38;;;12.70;99.90;;;;;;4979881;28;20037;-90
2022/10/07 00:19:49;;;;;;;7.93;1.90;;;12.70;99.90;;;;;;4977354;28;20023;-90
2022/10/07 00:22:15;;;;;;;7.63;2.03;;;12.60;99.90;;;;;;4974554;28;20034;-89
2022/10/07 00:24:41;;;;;;;15.57;2.03;;;12.60;99.90;;;;;;4976383;28;20031;-90
2022/10/07 00:27:07;;;;;;;14.77;2.53;;;12.60;99.90;;;;;;4983094;28;20073;-90
2022/10/07 00:29:32;;;;;;;12.63;2.63;;;12.50;99.90;;;;;;4985858;28;20033;-89
2022/10/07 00:31:58;;;;;;;7.78;1.85;;;12.50;99.90;;;;;;4985713;28;20025;-89
2022/10/07 00:34:24;;;;;;;10.27;1.60;;;12.40;99.90;;;;;;4973574;28;20102;-89
2022/10/07 00:36:49;;;;;;;14.77;1.98;;;12.40;99.90;;;;;;4984365;28;20054;-89
2022/10/07 00:39:16;;;;;;;8.65;1.83;;;12.40;99.90;;;;;;4967687;28;20326;-90
2022/10/07 00:41:49;;;;;;;11.27;1.85;;;12.30;99.90;;;;;;4985521;28;20070;-89
2022/10/07 00:44:30;;;;;;;9.38;1.88;;;12.30;99.90;;;;;;4983998;28;20237;-89
2022/10/07 00:47:16;;;;;;;12.10;2.40;;;12.30;99.90;;;;;;4981912;28;20268;-88
2022/10/07 00:49:47;;;;;;;12.30;1.92;;;12.20;99.90;;;;;;4972379;28;20058;-90
2022/10/07 00:52:15;;;;;;;11.60;2.15;;;12.20;99.90;;;;;;4985011;28;20053;-89
2022/10/07 00:54:42;;;;;;;12.10;2.47;;;12.20;99.90;;;;;;4983618;28;20014;-88
2022/10/07 00:57:08;;;;;;;11.80;1.92;;;12.10;99.90;;;;;;4973733;28;20555;-90
2022/10/07 00:59:36;;;;;;;16.92;2.05;;;12.10;99.90;;;;;;4973641;28;20096;-89
2022/10/07 01:02:03;;;;;;;8.48;1.92;;;12.10;99.90;;;;;;4975416;28;20047;-89
2022/10/07 01:04:28;;;;;;;11.77;2.28;;;12.10;99.90;;;;;;4973708;28;20030;-90
2022/10/07 01:06:54;;;;;;;11.50;2.25;;;12.10;99.90;;;;;;4979381;28;20039;-90
2022/10/07 01:09:22;;;;;;;11.45;2.30;;;12.10;99.90;;;;;;4966962;28;20047;-89
2022/10/07 01:11:51;;;;;;;9.43;1.52;;;12.10;99.90;;;;;;4984773;28;20086;-89
2022/10/07 01:14:34;;;;;;;8.88;2.22;;;12.10;99.90;;;;;;4984854;28;20046;-90
2022/10/07 01:17:24;;;;;;;11.23;1.95;;;12.10;99.90;;;;;;4971452;28;20117;-88
2022/10/07 01:20:02;;;;;;;10.10;1.70;;;12.10;99.90;;;;;;4984787;28;20078;-89
2022/10/07 01:22:49;;;;;;;9.77;1.80;;;12.10;99.90;;;;;;4984028;28;20027;-89
2022/10/07 01:25:51;;;;;;;9.77;2.40;;;12.00;99.90;;;;;;4984355;28;20082;-89
2022/10/07 01:28:32;;;;;;;14.00;2.67;;;12.00;99.90;;;;;;4983037;28;20014;-89
2022/10/07 01:31:03;;;;;;;5.60;1.33;;;12.00;99.90;;;;;;4956994;28;20027;-89
2022/10/07 01:33:31;;;;;;;9.93;1.90;;;12.00;99.90;;;;;;4973429;28;20109;-89
2022/10/07 01:36:02;;;;;;;14.98;2.10;;;11.90;99.90;;;;;;4975380;28;20034;-90
2022/10/07 01:38:29;;;;;;;11.98;1.98;;;11.90;99.90;;;;;;4971525;28;20464;-89
2022/10/07 01:41:03;;;;;;;8.75;1.45;;;11.90;99.90;;;;;;4955950;28;20384;-91
2022/10/07 01:43:31;;;;;;;12.85;1.88;;;11.90;99.90;;;;;;4973238;28;20023;-88
2022/10/07 01:45:57;;;;;;;12.63;2.10;;;11.90;99.90;;;;;;4973211;28;20031;-89
2022/10/07 01:48:23;;;;;;;10.27;2.00;;;11.90;99.90;;;;;;4959287;28;20263;-89
2022/10/07 01:50:50;;;;;;;15.98;1.98;;;11.90;99.90;;;;;;4973018;28;20117;-89
2022/10/07 01:53:22;;;;;;;12.10;2.40;;;11.80;99.90;;;;;;4972895;28;20526;-89
2022/10/07 01:56:00;;;;;;;7.45;1.80;;;11.80;99.90;;;;;;4972832;28;20103;-89
2022/10/07 01:58:44;;;;;;;7.38;2.13;;;11.80;99.90;;;;;;4973737;28;20051;-89
2022/10/07 02:01:31;;;;;;;11.32;2.50;;;11.90;99.90;;;;;;4983022;28;20085;-89
2022/10/07 02:04:03;;;;;;;11.30;2.50;;;11.80;99.90;;;;;;4983945;28;20361;-88
2022/10/07 02:06:31;;;;;;;11.38;2.25;;;11.80;99.90;;;;;;4983809;28;20018;-90
2022/10/07 02:09:01;;;;;;;14.90;2.25;;;11.80;99.90;;;;;;4982552;28;20090;-88
2022/10/07 02:11:32;;;;;;;8.38;1.50;;;11.80;99.90;;;;;;4974750;28;20026;-88
2022/10/07 02:14:14;;;;;;;11.07;2.13;;;11.80;99.90;;;;;;4981329;28;20271;-89
2022/10/07 02:16:57;;;;;;;10.95;1.92;;;11.80;99.90;;;;;;4981030;28;20061;-89
2022/10/07 02:19:27;;;;;;;10.43;1.75;;;11.80;99.90;;;;;;4982663;28;20150;-88
2022/10/07 02:21:56;;;;;;;12.73;1.80;;;11.80;99.90;;;;;;4982894;28;20034;-89
2022/10/07 02:24:26;;;;;;;12.45;1.77;;;11.80;99.90;;;;;;4983754;28;20268;-87
2022/10/07 02:26:54;;;;;;;7.88;1.95;;;11.80;99.90;;;;;;4983086;28;20098;-88
2022/10/07 02:29:22;;;;;;;11.70;2.22;;;11.80;99.90;;;;;;4976129;28;20498;-89
2022/10/07 02:31:51;;;;;;;11.43;2.08;;;11.80;99.90;;;;;;4976000;28;20026;-90
2022/10/07 02:34:20;;;;;;;11.55;1.90;;;11.80;99.90;;;;;;4974730;28;20075;-89
2022/10/07 02:36:57;;;;;;;10.23;2.08;;;11.80;99.90;;;;;;4975394;28;20386;-90
2022/10/07 02:39:23;;;;;;;11.20;2.05;;;11.80;99.90;;;;;;4980343;28;20026;-90
2022/10/07 02:42:03;;;;;;;11.82;2.17;;;11.70;99.90;;;;;;4957899;28;20026;-90
2022/10/07 02:44:52;;;;;;;8.93;1.85;;;11.70;99.90;;;;;;4993616;28;20041;-90
2022/10/07 02:47:27;;;;;;;11.75;2.10;;;11.70;99.90;;;;;;4996789;28;20015;-90
2022/10/07 02:49:59;;;;;;;11.95;1.80;;;11.60;99.90;;;;;;4959812;28;20035;-91
2022/10/07 02:52:30;;;;;;;13.50;3.00;;;11.60;99.90;;;;;;4982549;28;20062;-90
2022/10/07 02:55:00;;;;;;;11.30;1.90;;;11.60;99.90;;;;;;4983639;28;20019;-90
2022/10/07 02:57:30;;;;;;;9.07;2.05;;;11.60;99.90;;;;;;4983067;28;20029;-89
2022/10/07 02:59:59;;;;;;;8.40;1.80;;;11.60;99.90;;;;;;4983211;28;20303;-90
2022/10/07 03:02:41;;;;;;;8.68;2.05;;;11.60;99.90;;;;;;4982135;28;20222;-89
2022/10/07 03:05:08;;;;;;;14.68;2.13;;;11.60;99.90;;;;;;4978267;28;20014;-89
2022/10/07 03:07:35;;;;;;;9.25;1.58;;;11.50;99.90;;;;;;4982087;28;20049;-89
2022/10/07 03:10:02;;;;;;;14.30;2.03;;;11.50;99.90;;;;;;4983129;28;20081;-90
2022/10/07 03:12:28;;;;;;;12.07;1.85;;;11.50;99.90;;;;;;4982871;28;20313;-90
2022/10/07 03:14:53;;;;;;;8.95;1.90;;;11.50;99.90;;;;;;4975409;28;20035;-90
2022/10/07 03:17:19;;;;;;;13.15;2.28;;;11.50;99.90;;;;;;4981022;28;20030;-90
2022/10/07 03:19:45;;;;;;;13.63;2.13;;;11.50;99.90;;;;;;4979480;28;20027;-89
2022/10/07 03:22:11;;;;;;;11.48;2.30;;;11.40;99.90;;;;;;4982209;28;20041;-89
2022/10/07 03:24:37;;;;;;;12.25;2.20;;;11.40;99.90;;;;;;4982508;28;20023;-89
2022/10/07 03:27:06;;;;;;;12.50;2.30;;;11.40;99.90;;;;;;4982049;28;20019;-90
2022/10/07 03:29:33;;;;;;;9.70;1.90;;;11.40;99.90;;;;;;4981095;28;20018;-87
2022/10/07 03:32:00;;;;;;;15.90;3.47;;;11.30;99.90;;;;;;4978531;28;20323;-90
2022/10/07 03:34:26;;;;;;;12.77;2.05;;;11.30;99.90;;;;;;4980794;28;20023;-90
2022/10/07 03:36:53;;;;;;;12.38;2.13;;;11.30;99.90;;;;;;4971200;28;20070;-89
2022/10/07 03:39:18;;;;;;;9.38;1.80;;;11.30;99.90;;;;;;4972852;28;20499;-90
2022/10/07 03:41:46;;;;;;;11.98;2.40;;;11.30;99.90;;;;;;4976487;28;20087;-90
2022/10/07 03:44:13;;;;;;;15.43;1.95;;;11.30;99.90;;;;;;4980986;28;20026;-89
2022/10/07 03:46:39;;;;;;;10.88;2.35;;;11.30;99.90;;;;;;4982121;28;20234;-90
2022/10/07 03:49:05;;;;;;;13.07;2.35;;;11.30;99.90;;;;;;4982376;28;20286;-89
2022/10/07 03:51:30;;;;;;;13.23;1.98;;;11.30;99.90;;;;;;4978811;28;20035;-89
2022/10/07 03:53:57;;;;;;;10.43;1.92;;;11.30;99.90;;;;;;4971232;28;20047;-90
2022/10/07 03:56:23;;;;;;;15.63;2.30;;;11.30;99.90;;;;;;4971558;28;20101;-90
2022/10/07 03:58:49;;;;;;;11.38;2.42;;;11.40;99.90;;;;;;4953304;28;20030;-89
2022/10/07 04:01:15;;;;;;;10.75;1.70;;;11.40;99.90;;;;;;4977742;28;20044;-89
2022/10/07 04:03:41;;;;;;;10.93;1.92;;;11.40;99.90;;;;;;4964191;28;20011;-90
2022/10/07 04:06:06;;;;;;;14.05;2.17;;;11.40;99.90;;;;;;4963017;28;20226;-89
2022/10/07 04:08:33;;;;;;;11.05;2.00;;;11.40;99.90;;;;;;4980327;28;20034;-90
2022/10/07 04:11:00;;;;;;;14.25;1.75;;;11.40;99.90;;;;;;4979006;28;20110;-90
2022/10/07 04:13:26;;;;;;;14.10;2.20;;;11.30;99.90;;;;;;4982064;28;20011;-90
2022/10/07 04:15:52;;;;;;;11.52;2.05;;;11.40;99.90;;;;;;4980936;28;20051;-89
2022/10/07 04:18:18;;;;;;;13.48;1.95;;;11.40;99.90;;;;;;4980570;28;20026;-90
2022/10/07 04:20:43;;;;;;;9.10;1.83;;;11.40;99.90;;;;;;4964844;28;20025;-89
2022/10/07 04:23:09;;;;;;;13.10;1.85;;;11.40;99.90;;;;;;4981302;28;20022;-90
2022/10/07 04:25:36;;;;;;;19.45;2.55;;;11.40;99.90;;;;;;4982145;28;20027;-89
2022/10/07 04:28:05;;;;;;;14.35;2.33;;;11.40;99.90;;;;;;4977707;28;20015;-90
2022/10/07 04:30:33;;;;;;;13.15;2.10;;;11.40;99.90;;;;;;4973844;28;20062;-89
2022/10/07 04:33:03;;;;;;;16.33;2.60;;;11.40;99.90;;;;;;4979369;28;20216;-89
2022/10/07 04:35:29;;;;;;;11.48;1.95;;;11.40;99.90;;;;;;4981313;28;20031;-90
2022/10/07 04:37:55;;;;;;;13.65;2.15;;;11.40;99.90;;;;;;4981608;28;20023;-90
2022/10/07 04:40:22;;;;;;;12.50;2.00;;;11.40;99.90;;;;;;4980926;28;20033;-90
2022/10/07 04:45:34;;;;;;;10.35;2.40;;;11.40;99.90;;;;;;4986559;28;20033;-89
2022/10/07 04:48:01;;;;;;;14.82;2.13;;;11.40;99.90;;;;;;4985259;28;20022;-91
2022/10/07 04:50:27;;;;;;;15.95;2.72;;;11.40;99.90;;;;;;4986996;28;20031;-90
2022/10/07 04:52:53;;;;;;;9.30;1.85;;;11.40;99.90;;;;;;4995218;28;20061;-90
2022/10/07 04:55:19;;;;;;;11.00;1.73;;;11.40;99.90;;;;;;4999606;28;20061;-89
2022/10/07 04:57:44;;;;;;;13.25;1.92;;;11.50;99.90;;;;;;4994629;28;20023;-90
2022/10/07 05:00:10;;;;;;;13.55;2.45;;;11.50;99.90;;;;;;4971391;28;20115;-90
2022/10/07 05:02:36;;;;;;;10.05;2.20;;;11.50;99.90;;;;;;4999386;28;20019;-90
2022/10/07 05:05:02;;;;;;;11.02;2.20;;;11.50;99.90;;;;;;4999096;28;20045;-91
2022/10/07 05:07:28;;;;;;;11.70;2.47;;;11.50;99.90;;;;;;4990952;28;20030;-90
2022/10/07 05:09:54;;;;;;;10.80;1.80;;;11.50;99.90;;;;;;4994883;28;20063;-91
2022/10/07 05:12:19;;;;;;;10.15;1.80;;;11.50;99.90;;;;;;4994354;28;20023;-88
2022/10/07 05:14:45;;;;;;;15.20;2.15;;;11.50;99.90;;;;;;4979690;28;20042;-90
2022/10/07 05:17:12;;;;;;;12.02;2.50;;;11.50;99.90;;;;;;4984704;28;20038;-89
2022/10/07 05:19:38;;;;;;;13.90;2.40;;;11.50;99.90;;;;;;4980641;28;20396;-89
2022/10/07 05:22:04;;;;;;;8.00;2.03;;;11.60;99.90;;;;;;4974314;28;20027;-89
2022/10/07 05:24:30;;;;;;;10.15;2.63;;;11.60;99.90;;;;;;4970618;28;20543;-89
2022/10/07 05:26:56;;;;;;;15.00;2.47;;;11.60;99.90;;;;;;4972499;28;20062;-90
2022/10/07 05:29:22;;;;;;;14.90;2.40;;;11.60;99.90;;;;;;4970042;28;20019;-90
2022/10/07 05:31:48;;;;;;;18.67;2.63;;;11.60;99.90;;;;;;4971214;28;20065;-90
2022/10/07 05:34:14;;;;;;;13.82;2.28;;;11.60;99.90;;;;;;4971040;28;20023;-90
2022/10/07 05:36:41;;;;;;;18.27;2.90;;;11.60;99.90;;;;;;4976384;28;20043;-90
2022/10/07 05:39:08;;;;;;;12.23;2.15;;;11.60;99.90;;;;;;4984077;28;20014;-90
2022/10/07 05:41:33;;;;;;;12.27;2.72;;;11.60;99.90;;;;;;4964626;28;20031;-89
2022/10/07 05:44:00;;;;;;;14.48;2.85;;;11.60;99.90;;;;;;4982530;28;20026;-91
2022/10/07 05:46:25;;;;;;;13.15;2.60;;;11.60;99.90;;;;;;4983960;28;20180;-89
2022/10/07 05:48:52;;;;;;;12.50;2.10;;;11.60;99.90;;;;;;4984728;28;20061;-90
2022/10/07 05:51:23;;;;;;;11.10;2.47;;;11.60;99.90;;;;;;4982745;28;20046;-90
2022/10/07 05:53:56;;;;;;;8.52;2.25;;;11.60;99.90;;;;;;4982143;28;20047;-90
2022/10/07 05:56:22;;;;;;;14.80;2.53;;;11.60;99.90;;;;;;4979537;28;20095;-91
2022/10/07 05:58:51;;;;;;;15.38;2.42;;;11.50;99.90;;;;;;4972969;28;20027;-91
2022/10/07 06:01:21;;;;;;;16.23;2.67;;;11.50;99.90;;;;;;4982144;28;20023;-90
2022/10/07 06:03:53;;;;;;;14.27;2.58;;;11.50;99.90;;;;;;4983659;28;20058;-90
2022/10/07 06:06:19;;;;;;;15.52;2.60;;;11.60;99.90;;;;;;4982757;28;20070;-90
2022/10/07 06:08:46;;;;;;;11.32;2.47;;;11.50;99.90;;;;;;4980538;28;20034;-89
2022/10/07 06:13:58;;;;;;;12.02;2.53;;;11.50;99.90;;;;;;4973650;28;20474;-85
2022/10/07 06:16:24;;;;;;;13.50;2.65;;;11.50;99.90;;;;;;4972630;28;20054;-87
2022/10/07 06:18:51;;;;;;;15.55;2.75;;;11.50;99.90;;;;;;4973144;28;20415;-83
2022/10/07 06:21:22;;;;;;;8.93;2.50;;;11.40;99.90;;;;;;4974375;28;20515;-84
2022/10/07 06:23:55;;;;;;;11.13;2.33;;;11.50;99.90;;;;;;4972254;28;20023;-84
2022/10/07 06:26:21;;;;;;;10.13;1.98;;;11.50;99.90;;;;;;4970445;28;20510;-84
2022/10/07 06:28:47;;;;;;;10.68;2.10;;;11.50;99.90;;;;;;4971562;28;20081;-84
2022/10/07 06:31:21;;;;;;;8.75;2.10;;;11.60;99.90;;;;;;4970581;28;20081;-84
2022/10/07 06:33:48;;;;;;;8.87;2.03;;;11.50;99.90;;;;;;4970642;28;20377;-86
2022/10/07 06:36:14;;;;;;;9.00;1.70;;;11.60;99.90;;;;;;4972214;28;20261;-85
2022/10/07 06:38:44;;;;;;;8.38;2.00;;;11.60;99.90;;;;;;4980700;28;20042;-85
2022/10/07 06:41:10;;;;;;;10.48;1.90;;;11.60;99.90;;;;;;4970014;28;20018;-85
2022/10/07 06:43:36;;;;;;;14.23;2.53;;;11.70;99.90;;;;;;4981753;28;20085;-84
2022/10/07 06:46:04;;;;;;;15.02;2.75;;;11.70;99.90;;;;;;4981854;28;20234;-84
2022/10/07 06:48:31;;;;;;;11.25;2.10;;;11.70;99.90;;;;;;4981708;28;20007;-84
2022/10/07 06:50:58;;;;;;;22.77;2.30;;;11.70;99.90;;;;;;4977601;28;20030;-84
2022/10/07 06:53:25;;;;;;;16.60;3.17;;;11.70;99.90;;;;;;4971416;28;20051;-84
2022/10/07 06:55:53;;;;;;;9.75;2.20;;;11.80;99.90;;;;;;4973636;28;20034;-92
2022/10/07 06:58:20;;;;;;;15.52;2.53;;;11.80;99.90;;;;;;4972418;28;20018;-84
2022/10/07 07:00:49;;;;;;;10.05;2.30;;;11.80;99.90;;;;;;4971288;28;20023;-85
2022/10/07 07:03:16;;;;;;;14.65;2.53;;;11.90;99.90;;;;;;4953288;28;20023;-85
2022/10/07 07:05:42;;;;;;;12.63;2.80;;;11.90;99.90;;;;;;4971135;28;20022;-85
2022/10/07 07:08:08;;;;;;;10.10;2.03;;;11.90;99.90;;;;;;4970312;28;20019;-85
2022/10/07 07:10:41;;;;;;;13.68;2.60;;;12.00;99.90;;;;;;4969541;28;20488;-84
2022/10/07 07:13:07;;;;;;;12.53;2.33;;;12.00;99.90;;;;;;4970432;28;20011;-84
2022/10/07 07:15:37;;;;;;;11.30;2.22;;;12.00;99.90;;;;;;4970601;28;20299;-84
2022/10/07 07:18:04;;;;;;;12.68;2.53;;;12.10;99.90;;;;;;4970693;28;20019;-84
2022/10/07 07:20:36;;;;;;;15.05;3.13;;;12.10;99.90;;;;;;4970793;28;20498;-84
2022/10/07 07:23:05;;;;;;;15.88;2.40;;;12.20;99.90;;;;;;4970814;28;20031;-86
2022/10/07 07:25:35;;;;;;;16.35;2.60;;;12.20;99.90;;;;;;4970893;28;20077;-85
2022/10/07 07:28:00;;;;;;;12.73;2.22;;;12.30;99.90;;;;;;4970061;28;20035;-87
2022/10/07 07:30:28;;;;;;;15.23;2.65;;;12.30;99.90;;;;;;4970534;28;20034;-85
2022/10/07 07:32:54;;;;;;;22.55;3.72;;;12.30;99.90;;;;;;4970696;28;20030;-84
2022/10/07 07:35:24;;;;;;;12.15;2.50;;;12.40;99.90;;;;;;4970854;28;20037;-84
2022/10/07 07:37:51;;;;;;;20.77;2.88;;;12.40;99.90;;;;;;4970278;28;20054;-84
2022/10/07 07:40:17;;;;;;;20.40;4.55;;;12.40;99.90;;;;;;4970333;28;20045;-83
2022/10/07 07:42:45;;;;;;;23.35;4.50;;;12.40;99.90;;;;;;4965389;28;20098;-83
2022/10/07 07:45:11;;;;;;;13.82;2.65;;;12.50;99.90;;;;;;4970338;28;20158;-83
2022/10/07 07:47:37;;;;;;;13.63;2.63;;;12.50;99.90;;;;;;4970109;28;20023;-85
2022/10/07 07:50:04;;;;;;;15.15;2.72;;;12.60;99.90;;;;;;4970105;28;20038;-84
2022/10/07 07:52:32;;;;;;;15.98;2.38;;;12.60;99.90;;;;;;4970261;28;20102;-86
2022/10/07 07:54:58;;;;;;;8.63;2.05;;;12.70;99.90;;;;;;4970362;28;20346;-89
2022/10/07 07:57:26;;;;;;;13.02;2.47;;;12.80;99.90;;;;;;4969950;28;20026;-85
2022/10/07 07:59:52;;;;;;;12.48;2.25;;;12.90;99.90;;;;;;4970511;28;20122;-85
2022/10/07 08:02:19;;;;;;;8.43;1.77;;;13.00;99.90;;;;;;4970590;28;20054;-87
2022/10/07 08:04:45;;;;;;;16.70;2.85;;;13.10;99.90;;;;;;4970130;28;20023;-88
2022/10/07 08:07:11;;;;;;;13.57;2.10;;;13.20;99.90;;;;;;4970331;28;20459;-87
2022/10/07 08:09:37;;;;;;;12.07;2.55;;;13.30;99.90;;;;;;4968444;28;20111;-87
2022/10/07 08:12:03;;;;;;;13.52;2.55;;;13.40;99.90;;;;;;4952868;28;20511;-88
2022/10/07 08:14:30;;;;;;;14.35;2.60;;;13.50;99.90;;;;;;4968788;28;20031;-88
2022/10/07 08:16:57;;;;;;;15.45;2.53;;;13.50;99.90;;;;;;4973778;28;20045;-87
2022/10/07 08:19:28;;;;;;;13.45;2.20;;;13.50;99.90;;;;;;4973804;28;20046;-87
2022/10/07 08:21:54;;;;;;;9.40;2.58;;;13.50;99.90;;;;;;4974017;28;20415;-88
2022/10/07 08:24:21;;;;;;;9.75;2.40;;;13.60;99.90;;;;;;4960028;28;20035;-88
2022/10/07 08:26:47;;;;;;;13.25;2.33;;;13.70;99.90;;;;;;4973941;28;20025;-85
2022/10/07 08:29:14;;;;;;;15.02;2.38;;;13.80;99.90;;;;;;4973915;28;20042;-85
2022/10/07 08:31:41;;;;;;;17.15;2.75;;;13.90;99.90;;;;;;4973820;28;20023;-85
2022/10/07 08:34:07;;;;;;;14.75;2.65;;;14.00;99.90;;;;;;4956485;28;20121;-85
2022/10/07 08:36:33;;;;;;;10.52;2.17;;;14.00;99.90;;;;;;4973784;28;20118;-85
2022/10/07 08:39:00;;;;;;;14.93;2.47;;;14.10;99.90;;;;;;4972031;28;20488;-84
2022/10/07 08:41:33;;;;;;;10.88;1.90;;;14.20;99.90;;;;;;4972038;28;20074;-85
2022/10/07 08:44:30;;;;;;;12.93;2.38;;;14.20;99.90;;;;;;4972793;28;20042;-85
2022/10/07 08:47:05;;;;;;;17.05;2.55;;;14.20;99.90;;;;;;4955242;28;20026;-86
2022/10/07 08:49:34;;;;;;;;;;;14.30;99.90;;;;;;4974402;28;20018;-85
2022/10/07 08:52:09;;;;;;;11.55;1.92;;;14.30;99.90;;;;;;4973006;28;19910;-85
2022/10/07 08:54:34;;;;;;;10.70;2.60;;;14.40;99.90;;;;;;4950644;28;20057;-87
2022/10/07 08:57:11;;;;;;;16.98;2.35;;;14.40;99.90;;;;;;4972902;28;20081;-87
2022/10/07 08:59:40;;;;;;;14.32;2.75;;;14.40;99.90;;;;;;4973312;28;20015;-86
2022/10/07 09:02:12;;;;;;;10.07;2.60;;;14.40;99.90;;;;;;4973561;28;20027;-88
2022/10/07 09:05:30;;;;;;;15.57;2.72;;;14.50;99.90;;;;;;4974925;28;20097;-87
2022/10/07 09:08:01;;;;;;;16.80;2.63;;;14.60;99.90;;;;;;4931902;28;20031;-87
2022/10/07 09:10:38;;;;;;;15.27;3.05;;;14.70;99.90;;;;;;4973802;28;20403;-87
2022/10/07 09:13:11;;;;;;;9.88;2.50;;;14.80;99.90;;;;;;4960191;28;20518;-87
2022/10/07 09:15:56;;;;;;;9.85;2.67;;;14.90;99.90;;;;;;4975173;28;20283;-87
2022/10/07 09:18:24;;;;;;;;;;;15.00;99.90;;;;;;4975089;28;20498;-88
2022/10/07 09:20:54;;;;;;;9.52;2.03;;;15.10;99.90;;;;;;4965132;28;20365;-88
2022/10/07 09:23:29;;;;;;;10.18;2.83;;;15.30;99.90;;;;;;4976445;28;20029;-88
2022/10/07 09:25:55;;;;;;;8.30;2.17;;;15.30;99.90;;;;;;4971919;28;20457;-88
2022/10/07 09:28:28;;;;;;;10.98;2.45;;;15.40;99.90;;;;;;4974319;28;20030;-87
2022/10/07 09:30:54;;;;;;;10.77;2.42;;;15.60;99.90;;;;;;4973154;28;20038;-88
2022/10/07 09:33:22;;;;;;;8.52;1.90;;;15.70;99.90;;;;;;4973060;28;20062;-87
2022/10/07 09:36:06;;;;;;;13.38;2.38;;;15.80;99.90;;;;;;4970525;28;20164;-88
2022/10/07 09:38:40;;;;;;;12.45;2.60;;;15.90;99.90;;;;;;4973926;28;20114;-87
2022/10/07 09:41:23;;;;;;;15.38;2.63;;;16.10;99.90;;;;;;4966660;28;20035;-87
2022/10/07 09:44:18;;;;;;;12.82;2.78;;;16.30;99.90;;;;;;4965949;28;20094;-87
2022/10/07 09:46:46;;;;;;;10.95;2.80;;;16.40;99.90;;;;;;4972441;28;20027;-85
2022/10/07 09:49:27;;;;;;;11.35;2.42;;;16.50;99.90;;;;;;4969393;28;20386;-85
2022/10/07 09:52:16;;;;;;;14.52;2.83;;;16.60;99.90;;;;;;4969237;28;20038;-85
2022/10/07 09:54:46;;;;;;;13.52;3.28;;;16.80;99.90;;;;;;4970454;28;20530;-84
2022/10/07 09:57:31;;;;;;;12.85;3.20;;;17.00;99.90;;;;;;4968509;28;20129;-85
2022/10/07 10:00:12;;;;;;;9.77;2.30;;;17.10;99.90;;;;;;4950474;28;20035;-85
2022/10/07 10:02:49;;;;;;;14.82;2.95;;;17.10;99.90;;;;;;4961703;28;20519;-85
2022/10/07 10:05:36;;;;;;;11.70;2.60;;;17.00;99.90;;;;;;4965091;28;20027;-84
2022/10/07 10:08:16;;;;;;;14.38;2.55;;;17.10;99.90;;;;;;4962055;28;20522;-85
2022/10/07 10:11:09;;;;;;;13.60;2.72;;;17.20;99.90;;;;;;4966908;28;20040;-86
2022/10/07 10:13:37;;;;;;;11.98;2.33;;;17.30;99.90;;;;;;4950261;28;20194;-86
2022/10/07 10:16:05;;;;;;;8.48;2.05;;;17.60;99.90;;;;;;4964871;28;20039;-86
2022/10/07 10:18:39;;;;;;;9.07;2.35;;;17.80;99.90;;;;;;4965770;28;20193;-86
2022/10/07 10:21:24;;;;;;;;;;;18.10;99.90;;;;;;4968915;28;20507;-86
2022/10/07 10:23:58;;;;;;;12.25;2.13;;;18.30;99.90;;;;;;4966883;28;19917;-86
2022/10/07 10:26:56;;;;;;;12.02;2.20;;;18.50;99.90;;;;;;4967535;28;20023;-86
2022/10/07 10:29:40;;;;;;;12.75;2.35;;;18.70;99.90;;;;;;4963646;28;20023;-86
2022/10/07 10:32:21;;;;;;;10.30;1.80;;;18.90;99.90;;;;;;4964655;28;20035;-85
2022/10/07 10:35:05;;;;;;;7.28;2.00;;;19.20;99.90;;;;;;4972031;28;20370;-83
2022/10/07 10:37:40;;;;;;;13.30;2.40;;;19.40;99.90;;;;;;4974531;28;20196;-84
2022/10/07 10:40:54;;;;;;;8.63;2.47;;;19.50;99.90;;;;;;4975305;28;20061;-85
2022/10/07 10:43:57;;;;;;;12.75;2.65;;;19.70;99.90;;;;;;4901679;29;20096;-84
2022/10/07 10:46:46;;;;;;;6.03;1.77;;;19.70;99.90;;;;;;4902767;29;20032;-82
2022/10/07 10:49:40;;;;;;;6.25;2.30;;;19.70;99.90;;;;;;4972412;28;20266;-81
2022/10/07 10:52:36;;;;;;;12.05;2.05;;;20.00;99.90;;;;;;4975915;28;20035;-81
2022/10/07 10:55:46;;;;;;;6.53;2.00;;;20.20;99.90;;;;;;4978960;28;20255;-81
2022/10/07 10:58:57;;;;;;;9.93;1.83;;;20.20;99.90;;;;;;4976536;28;20052;-81
2022/10/07 11:01:33;;;;;;;9.77;2.33;;;20.30;99.90;;;;;;4968061;28;20250;-81
2022/10/07 11:04:11;;;;;;;11.00;1.98;;;20.40;99.90;;;;;;4976682;28;20022;-81
2022/10/07 11:06:40;;;;;;;6.80;1.92;;;20.50;99.90;;;;;;4973432;28;20074;-81
2022/10/07 11:09:28;;;;;;;10.48;2.40;;;20.50;99.90;;;;;;4973722;28;20211;-78
2022/10/07 11:11:54;;;;;;;7.32;2.08;;;20.60;99.90;;;;;;4975564;28;20053;-79
2022/10/07 11:14:22;;;;;;;4.93;1.67;;;20.50;99.90;;;;;;4978964;28;20254;-79
2022/10/07 11:16:54;;;;;;;9.13;2.28;;;20.50;99.90;;;;;;4977087;28;20031;-79
2022/10/07 11:19:34;;;;;;;8.57;1.65;;;20.50;99.90;;;;;;4975829;28;20006;-79
2022/10/07 11:22:00;;;;;;;12.35;2.30;;;20.60;99.90;;;;;;4975559;28;20030;-79
2022/10/07 11:24:43;;;;;;;7.97;1.42;;;20.50;99.90;;;;;;4978600;28;20034;-79
2022/10/07 11:27:19;;;;;;;7.75;1.80;;;20.60;99.90;;;;;;4976772;28;20043;-79
2022/10/07 11:30:02;;;;;;;10.65;2.22;;;20.70;99.90;;;;;;4978496;28;20019;-79
2022/10/07 11:32:34;;;;;;;5.47;1.80;;;20.70;99.90;;;;;;4969102;28;20047;-79
2022/10/07 11:35:24;;;;;;;7.03;1.80;;;20.70;99.90;;;;;;4974778;28;20041;-79
2022/10/07 11:38:17;;;;;;;6.60;1.88;;;20.70;99.90;;;;;;4972773;28;20106;-79
2022/10/07 11:41:01;;;;;;;7.78;1.67;;;20.70;99.90;;;;;;4959923;28;20027;-80
2022/10/07 11:43:48;;;;;;;4.78;1.80;;;21.00;99.90;;;;;;4973753;28;20030;-80
2022/10/07 11:46:24;;;;;;;6.95;2.42;;;21.20;99.90;;;;;;4968372;28;20039;-79
2022/10/07 11:49:05;;;;;;;8.50;1.80;;;21.20;99.90;;;;;;4973987;28;20087;-79
2022/10/07 11:51:36;;;;;;;11.00;1.77;;;21.20;99.90;;;;;;4974095;28;20033;-79
2022/10/07 11:54:05;;;;;;;6.40;2.00;;;21.10;99.90;;;;;;4972494;28;20066;-80
2022/10/07 11:56:51;;;;;;;8.48;1.90;;;21.20;99.90;;;;;;4979312;28;20102;-79
2022/10/07 11:59:38;;;;;;;5.68;1.50;;;21.30;99.90;;;;;;4978585;28;20082;-80
2022/10/07 12:02:26;;;;;;;7.72;2.10;;;21.50;99.90;;;;;;4975239;28;20027;-79
2022/10/07 12:04:53;;;;;;;8.80;1.73;;;21.90;99.90;;;;;;4974954;28;20050;-80
2022/10/07 12:07:31;;;;;;;12.07;2.40;;;22.20;99.90;;;;;;4977183;28;20023;-80
2022/10/07 12:10:02;;;;;;;7.88;1.90;;;22.30;99.90;;;;;;4978343;28;20027;-79
2022/10/07 12:12:43;;;;;;;5.75;1.65;;;22.40;99.90;;;;;;4971242;28;20030;-78
2022/10/07 12:15:48;;;;;;;7.60;1.92;;;22.30;99.90;;;;;;4979140;28;20022;-78
2022/10/07 12:18:16;;;;;;;6.25;1.70;;;22.30;99.90;;;;;;4974747;28;20314;-80
2022/10/07 12:20:45;;;;;;;7.75;1.80;;;22.30;99.90;;;;;;4953567;28;20030;-79
2022/10/07 12:23:19;;;;;;;7.13;1.80;;;22.50;99.90;;;;;;4980069;28;20027;-79
2022/10/07 12:25:52;;;;;;;6.47;2.10;;;22.60;99.90;;;;;;4983151;28;20030;-79
2022/10/07 12:28:34;;;;;;;6.05;1.67;;;22.60;99.90;;;;;;4975550;28;20014;-78
2022/10/07 12:31:14;;;;;;;10.52;2.25;;;22.60;99.90;;;;;;4972862;28;20098;-78
2022/10/07 12:33:46;;;;;;;6.35;1.88;;;22.70;99.90;;;;;;4972852;28;20031;-78
2022/10/07 12:36:19;;;;;;;5.30;2.00;;;22.70;99.90;;;;;;4968441;28;20031;-78
2022/10/07 12:39:10;;;;;;;8.23;2.00;;;22.70;99.90;;;;;;4971185;28;20018;-79
2022/10/07 12:41:38;;;;;;;10.20;1.65;;;22.80;99.90;;;;;;4971240;28;20038;-78
2022/10/07 12:44:25;;;;;;;4.65;1.80;;;22.80;99.90;;;;;;4976254;28;20019;-77
2022/10/07 12:46:56;;;;;;;5.18;1.65;;;22.90;99.90;;;;;;4981232;28;20078;-78
2022/10/07 12:49:36;;;;;;;4.70;1.13;;;22.80;99.90;;;;;;4977790;28;20042;-78
2022/10/07 12:52:06;;;;;;;3.75;1.35;;;22.70;99.90;;;;;;4961413;28;20043;-78
2022/10/07 12:54:46;;;;;;;5.88;1.95;;;22.70;99.90;;;;;;4978737;28;20295;-78
2022/10/07 12:57:17;;;;;;;10.18;2.33;;;22.60;99.90;;;;;;4979104;28;20057;-78
2022/10/07 13:00:01;;;;;;;5.97;1.63;;;22.50;99.90;;;;;;4949146;28;20046;-78
2022/10/07 13:02:44;;;;;;;5.43;1.88;;;22.20;99.90;;;;;;4967575;28;20073;-78
2022/10/07 13:05:52;;;;;;;8.37;1.80;;;22.20;99.90;;;;;;4968534;28;20125;-77
2022/10/07 13:08:36;;;;;;;8.10;1.80;;;22.40;99.90;;;;;;4925320;28;20508;-77
2022/10/07 13:11:49;;;;;;;4.32;1.38;;;22.70;99.90;;;;;;4963815;28;20049;-77